sensor_id;sensor_type;location;lat;lon;timestamp;pressure;altitude;pressure_sealevel;temperature;humidity
71109;BME280;59614;51.012;-1.648;2024-02-26T00:01:56;98569.97;;;5.08;100.00
71109;BME280;59614;51.012;-1.648;2024-02-26T00:04:21;98595.28;;;5.06;100.00
71109;BME280;59614;51.012;-1.648;2024-02-26T00:06:47;98585.63;;;5.09;100.00
71109;BME280;59614;51.012;-1.648;2024-02-26T00:09:15;98603.31;;;5.00;100.00
71109;BME280;59614;51.012;-1.648;2024-02-26T00:11:40;98589.28;;;5.02;100.00
71109;BME280;59614;51.012;-1.648;2024-02-26T00:14:05;98604.09;;;5.03;100.00
71109;BME280;59614;51.012;-1.648;2024-02-26T00:16:31;98616.44;;;4.97;100.00
71109;BME280;59614;51.012;-1.648;2024-02-26T00:18:56;98619.91;;;4.97;100.00
71109;BME280;59614;51.012;-1.648;2024-02-26T00:21:22;98619.78;;;5.03;100.00
71109;BME280;59614;51.012;-1.648;2024-02-26T00:23:53;98628.34;;;5.08;100.00
71109;BME280;59614;51.012;-1.648;2024-02-26T00:26:18;98637.97;;;5.08;100.00
71109;BME280;59614;51.012;-1.648;2024-02-26T00:28:44;98623.06;;;5.12;100.00
71109;BME280;59614;51.012;-1.648;2024-02-26T00:31:09;98633.47;;;5.13;100.00
71109;BME280;59614;51.012;-1.648;2024-02-26T00:33:34;98643.25;;;5.05;100.00
71109;BME280;59614;51.012;-1.648;2024-02-26T00:36:00;98639.72;;;5.07;100.00
71109;BME280;59614;51.012;-1.648;2024-02-26T00:38:25;98658.78;;;5.13;100.00
71109;BME280;59614;51.012;-1.648;2024-02-26T00:40:50;98654.59;;;5.05;100.00
71109;BME280;59614;51.012;-1.648;2024-02-26T00:43:16;98656.16;;;5.13;100.00
71109;BME280;59614;51.012;-1.648;2024-02-26T00:45:41;98672.00;;;5.06;100.00
71109;BME280;59614;51.012;-1.648;2024-02-26T00:48:06;98673.69;;;5.09;100.00
71109;BME280;59614;51.012;-1.648;2024-02-26T00:50:33;98677.03;;;5.16;100.00
71109;BME280;59614;51.012;-1.648;2024-02-26T00:52:58;98670.47;;;4.96;100.00
71109;BME280;59614;51.012;-1.648;2024-02-26T00:55:24;98691.31;;;4.99;100.00
71109;BME280;59614;51.012;-1.648;2024-02-26T00:57:49;98696.59;;;4.96;100.00
71109;BME280;59614;51.012;-1.648;2024-02-26T01:00:15;98701.00;;;4.95;100.00
71109;BME280;59614;51.012;-1.648;2024-02-26T01:02:40;98706.28;;;4.92;100.00
71109;BME280;59614;51.012;-1.648;2024-02-26T01:05:07;98716.94;;;4.83;100.00
71109;BME280;59614;51.012;-1.648;2024-02-26T01:07:34;98719.34;;;4.92;100.00
71109;BME280;59614;51.012;-1.648;2024-02-26T01:10:04;98730.16;;;4.75;100.00
71109;BME280;59614;51.012;-1.648;2024-02-26T01:12:31;98733.53;;;4.81;100.00
71109;BME280;59614;51.012;-1.648;2024-02-26T01:14:56;98753.47;;;4.85;100.00
71109;BME280;59614;51.012;-1.648;2024-02-26T01:17:21;98743.06;;;4.83;100.00
71109;BME280;59614;51.012;-1.648;2024-02-26T01:19:47;98744.06;;;4.77;100.00
71109;BME280;59614;51.012;-1.648;2024-02-26T01:22:12;98751.00;;;4.78;100.00
71109;BME280;59614;51.012;-1.648;2024-02-26T01:24:37;98755.38;;;4.78;100.00
71109;BME280;59614;51.012;-1.648;2024-02-26T01:27:03;98777.31;;;4.69;100.00
71109;BME280;59614;51.012;-1.648;2024-02-26T01:29:28;98762.19;;;4.85;100.00
71109;BME280;59614;51.012;-1.648;2024-02-26T01:31:54;98771.06;;;4.78;100.00
71109;BME280;59614;51.012;-1.648;2024-02-26T01:34:20;98778.97;;;4.73;100.00
71109;BME280;59614;51.012;-1.648;2024-02-26T01:36:45;98788.63;;;4.70;100.00
71109;BME280;59614;51.012;-1.648;2024-02-26T01:39:11;98801.44;;;4.84;100.00
71109;BME280;59614;51.012;-1.648;2024-02-26T01:41:38;98796.22;;;4.82;100.00
71109;BME280;59614;51.012;-1.648;2024-02-26T01:44:04;98805.94;;;4.77;100.00
71109;BME280;59614;51.012;-1.648;2024-02-26T01:46:31;98803.31;;;4.77;100.00
71109;BME280;59614;51.012;-1.648;2024-02-26T01:48:58;98826.81;;;4.78;100.00
71109;BME280;59614;51.012;-1.648;2024-02-26T01:51:24;98804.78;;;4.92;100.00
71109;BME280;59614;51.012;-1.648;2024-02-26T01:53:50;98817.06;;;4.87;100.00
71109;BME280;59614;51.012;-1.648;2024-02-26T01:56:17;98834.59;;;4.82;100.00
71109;BME280;59614;51.012;-1.648;2024-02-26T01:58:44;98829.94;;;4.98;100.00
71109;BME280;59614;51.012;-1.648;2024-02-26T02:01:09;98835.13;;;4.99;100.00
71109;BME280;59614;51.012;-1.648;2024-02-26T02:03:35;98851.84;;;4.92;100.00
71109;BME280;59614;51.012;-1.648;2024-02-26T02:06:02;98850.09;;;4.91;100.00
71109;BME280;59614;51.012;-1.648;2024-02-26T02:08:28;98857.94;;;4.91;100.00
71109;BME280;59614;51.012;-1.648;2024-02-26T02:10:53;98872.84;;;4.86;100.00
71109;BME280;59614;51.012;-1.648;2024-02-26T02:13:18;98868.03;;;5.09;100.00
71109;BME280;59614;51.012;-1.648;2024-02-26T02:15:44;98892.78;;;4.91;100.00
71109;BME280;59614;51.012;-1.648;2024-02-26T02:18:09;98881.47;;;4.91;100.00
71109;BME280;59614;51.012;-1.648;2024-02-26T02:20:35;98909.44;;;4.87;100.00
71109;BME280;59614;51.012;-1.648;2024-02-26T02:23:01;98895.38;;;4.93;100.00
71109;BME280;59614;51.012;-1.648;2024-02-26T02:25:26;98893.50;;;5.01;100.00
71109;BME280;59614;51.012;-1.648;2024-02-26T02:27:54;98912.81;;;4.92;100.00
71109;BME280;59614;51.012;-1.648;2024-02-26T02:30:29;98918.03;;;4.94;100.00
71109;BME280;59614;51.012;-1.648;2024-02-26T02:32:57;98928.56;;;4.88;100.00
71109;BME280;59614;51.012;-1.648;2024-02-26T02:35:24;98908.19;;;5.07;100.00
71109;BME280;59614;51.012;-1.648;2024-02-26T02:37:51;98893.63;;;4.95;100.00
71109;BME280;59614;51.012;-1.648;2024-02-26T02:40:17;98918.88;;;4.94;100.00
71109;BME280;59614;51.012;-1.648;2024-02-26T02:42:42;98918.06;;;4.91;100.00
71109;BME280;59614;51.012;-1.648;2024-02-26T02:45:08;98919.63;;;5.01;100.00
71109;BME280;59614;51.012;-1.648;2024-02-26T02:47:36;98933.41;;;5.09;100.00
71109;BME280;59614;51.012;-1.648;2024-02-26T02:50:03;98936.34;;;4.94;100.00
71109;BME280;59614;51.012;-1.648;2024-02-26T02:52:28;98931.59;;;5.15;100.00
71109;BME280;59614;51.012;-1.648;2024-02-26T02:54:53;98932.00;;;4.91;100.00
71109;BME280;59614;51.012;-1.648;2024-02-26T02:57:19;98954.47;;;5.03;100.00
71109;BME280;59614;51.012;-1.648;2024-02-26T02:59:44;98967.63;;;4.99;100.00
71109;BME280;59614;51.012;-1.648;2024-02-26T03:02:10;98963.25;;;4.99;100.00
71109;BME280;59614;51.012;-1.648;2024-02-26T03:04:35;98972.13;;;4.89;100.00
71109;BME280;59614;51.012;-1.648;2024-02-26T03:07:00;98982.38;;;5.01;100.00
71109;BME280;59614;51.012;-1.648;2024-02-26T03:09:26;98986.72;;;5.02;100.00
71109;BME280;59614;51.012;-1.648;2024-02-26T03:11:51;99012.16;;;4.94;100.00
71109;BME280;59614;51.012;-1.648;2024-02-26T03:14:17;98997.22;;;4.99;100.00
71109;BME280;59614;51.012;-1.648;2024-02-26T03:16:42;99000.56;;;5.07;100.00
71109;BME280;59614;51.012;-1.648;2024-02-26T03:19:07;99010.31;;;4.99;100.00
71109;BME280;59614;51.012;-1.648;2024-02-26T03:21:33;99006.81;;;5.00;100.00
71109;BME280;59614;51.012;-1.648;2024-02-26T03:23:58;99024.19;;;5.04;100.00
71109;BME280;59614;51.012;-1.648;2024-02-26T03:26:24;99013.78;;;5.01;100.00
71109;BME280;59614;51.012;-1.648;2024-02-26T03:28:49;99026.13;;;4.93;100.00
71109;BME280;59614;51.012;-1.648;2024-02-26T03:31:14;99052.19;;;4.96;100.00
71109;BME280;59614;51.012;-1.648;2024-02-26T03:33:40;99041.88;;;4.87;100.00
71109;BME280;59614;51.012;-1.648;2024-02-26T03:36:05;99047.03;;;4.93;100.00
71109;BME280;59614;51.012;-1.648;2024-02-26T03:38:32;99057.41;;;4.96;100.00
71109;BME280;59614;51.012;-1.648;2024-02-26T03:40:58;99051.16;;;5.08;100.00
71109;BME280;59614;51.012;-1.648;2024-02-26T03:43:23;99072.28;;;4.94;100.00
71109;BME280;59614;51.012;-1.648;2024-02-26T03:45:48;99077.41;;;5.00;100.00
71109;BME280;59614;51.012;-1.648;2024-02-26T03:48:14;99079.25;;;4.93;100.00
71109;BME280;59614;51.012;-1.648;2024-02-26T03:50:39;99087.03;;;4.98;100.00
71109;BME280;59614;51.012;-1.648;2024-02-26T03:53:05;99098.34;;;5.00;100.00
71109;BME280;59614;51.012;-1.648;2024-02-26T03:55:30;99109.81;;;4.90;100.00
71109;BME280;59614;51.012;-1.648;2024-02-26T03:57:56;99099.25;;;4.96;100.00
71109;BME280;59614;51.012;-1.648;2024-02-26T04:00:22;99108.03;;;4.92;100.00
71109;BME280;59614;51.012;-1.648;2024-02-26T04:02:48;99134.91;;;5.03;100.00
71109;BME280;59614;51.012;-1.648;2024-02-26T04:05:13;99108.81;;;4.97;100.00
71109;BME280;59614;51.012;-1.648;2024-02-26T04:07:39;99157.69;;;4.93;100.00
71109;BME280;59614;51.012;-1.648;2024-02-26T04:10:12;99123.56;;;5.04;100.00
71109;BME280;59614;51.012;-1.648;2024-02-26T04:12:42;99143.78;;;4.93;100.00
71109;BME280;59614;51.012;-1.648;2024-02-26T04:15:08;99154.09;;;5.02;100.00
71109;BME280;59614;51.012;-1.648;2024-02-26T04:17:34;99144.63;;;4.95;100.00
71109;BME280;59614;51.012;-1.648;2024-02-26T04:20:00;99167.16;;;5.02;100.00
71109;BME280;59614;51.012;-1.648;2024-02-26T04:22:25;99197.00;;;4.86;99.78
71109;BME280;59614;51.012;-1.648;2024-02-26T04:24:50;99192.50;;;4.99;99.26
71109;BME280;59614;51.012;-1.648;2024-02-26T04:27:16;99194.03;;;5.14;99.51
71109;BME280;59614;51.012;-1.648;2024-02-26T04:29:41;99169.78;;;5.02;100.00
71109;BME280;59614;51.012;-1.648;2024-02-26T04:32:06;99181.25;;;4.92;99.61
71109;BME280;59614;51.012;-1.648;2024-02-26T04:34:32;99189.06;;;4.95;98.97
71109;BME280;59614;51.012;-1.648;2024-02-26T04:36:57;99194.09;;;5.07;99.23
71109;BME280;59614;51.012;-1.648;2024-02-26T04:39:22;99201.06;;;5.08;99.13
71109;BME280;59614;51.012;-1.648;2024-02-26T04:41:48;99199.47;;;5.00;98.19
71109;BME280;59614;51.012;-1.648;2024-02-26T04:44:13;99231.69;;;5.00;98.81
71109;BME280;59614;51.012;-1.648;2024-02-26T04:46:38;99233.47;;;5.00;97.70
71109;BME280;59614;51.012;-1.648;2024-02-26T04:49:04;99223.78;;;5.05;97.76
71109;BME280;59614;51.012;-1.648;2024-02-26T04:51:29;99242.13;;;5.03;97.44
71109;BME280;59614;51.012;-1.648;2024-02-26T04:53:54;99243.72;;;5.14;97.17
71109;BME280;59614;51.012;-1.648;2024-02-26T04:56:21;99263.09;;;4.97;97.72
71109;BME280;59614;51.012;-1.648;2024-02-26T04:58:47;99244.72;;;5.05;98.50
71109;BME280;59614;51.012;-1.648;2024-02-26T05:01:12;99291.94;;;4.91;98.37
71109;BME280;59614;51.012;-1.648;2024-02-26T05:03:37;99264.03;;;4.91;98.54
71109;BME280;59614;51.012;-1.648;2024-02-26T05:06:04;99276.25;;;4.91;99.36
71109;BME280;59614;51.012;-1.648;2024-02-26T05:08:30;99290.19;;;4.91;99.59
71109;BME280;59614;51.012;-1.648;2024-02-26T05:10:56;99280.53;;;4.98;98.92
71109;BME280;59614;51.012;-1.648;2024-02-26T05:13:21;99305.00;;;4.94;99.01
71109;BME280;59614;51.012;-1.648;2024-02-26T05:15:47;99304.88;;;5.03;98.50
71109;BME280;59614;51.012;-1.648;2024-02-26T05:18:15;99302.25;;;5.05;98.37
71109;BME280;59614;51.012;-1.648;2024-02-26T05:20:40;99322.44;;;4.92;97.86
71109;BME280;59614;51.012;-1.648;2024-02-26T05:23:05;99310.16;;;4.97;97.90
71109;BME280;59614;51.012;-1.648;2024-02-26T05:25:31;99325.84;;;5.00;98.37
71109;BME280;59614;51.012;-1.648;2024-02-26T05:27:56;99374.75;;;4.89;97.59
71109;BME280;59614;51.012;-1.648;2024-02-26T05:30:21;99355.59;;;4.87;96.85
71109;BME280;59614;51.012;-1.648;2024-02-26T05:32:47;99345.09;;;4.93;96.56
71109;BME280;59614;51.012;-1.648;2024-02-26T05:35:12;99359.09;;;4.86;95.16
71109;BME280;59614;51.012;-1.648;2024-02-26T05:37:38;99362.47;;;4.97;95.26
71109;BME280;59614;51.012;-1.648;2024-02-26T05:40:04;99388.66;;;4.94;95.78
71109;BME280;59614;51.012;-1.648;2024-02-26T05:42:30;99363.41;;;4.91;94.65
71109;BME280;59614;51.012;-1.648;2024-02-26T05:44:55;99387.09;;;4.76;94.40
71109;BME280;59614;51.012;-1.648;2024-02-26T05:47:20;99373.97;;;4.82;93.94
71109;BME280;59614;51.012;-1.648;2024-02-26T05:49:46;99403.53;;;4.89;93.95
71109;BME280;59614;51.012;-1.648;2024-02-26T05:52:11;99391.38;;;4.83;92.83
71109;BME280;59614;51.012;-1.648;2024-02-26T05:54:36;99436.78;;;4.73;92.63
71109;BME280;59614;51.012;-1.648;2024-02-26T05:57:02;99409.63;;;4.88;92.40
71109;BME280;59614;51.012;-1.648;2024-02-26T05:59:27;99415.75;;;4.85;92.08
71109;BME280;59614;51.012;-1.648;2024-02-26T06:01:52;99413.19;;;4.84;92.30
71109;BME280;59614;51.012;-1.648;2024-02-26T06:04:18;99439.28;;;4.88;91.34
71109;BME280;59614;51.012;-1.648;2024-02-26T06:06:44;99456.78;;;4.78;91.75
71109;BME280;59614;51.012;-1.648;2024-02-26T06:09:10;99434.13;;;4.77;90.58
71109;BME280;59614;51.012;-1.648;2024-02-26T06:11:36;99456.84;;;4.72;91.17
71109;BME280;59614;51.012;-1.648;2024-02-26T06:14:02;99450.69;;;4.76;91.60
71109;BME280;59614;51.012;-1.648;2024-02-26T06:16:27;99467.25;;;4.75;91.11
71109;BME280;59614;51.012;-1.648;2024-02-26T06:18:53;99477.72;;;4.74;90.92
71109;BME280;59614;51.012;-1.648;2024-02-26T06:21:18;99492.53;;;4.75;90.29
71109;BME280;59614;51.012;-1.648;2024-02-26T06:23:43;99483.78;;;4.81;90.48
71109;BME280;59614;51.012;-1.648;2024-02-26T06:26:09;99495.19;;;4.70;90.50
71109;BME280;59614;51.012;-1.648;2024-02-26T06:28:35;99488.22;;;4.69;89.93
71109;BME280;59614;51.012;-1.648;2024-02-26T06:31:01;99531.81;;;4.64;88.98
71109;BME280;59614;51.012;-1.648;2024-02-26T06:33:27;99494.31;;;4.70;89.69
71109;BME280;59614;51.012;-1.648;2024-02-26T06:35:52;99531.81;;;4.64;89.07
71109;BME280;59614;51.012;-1.648;2024-02-26T06:38:17;99503.06;;;4.67;88.27
71109;BME280;59614;51.012;-1.648;2024-02-26T06:40:44;99553.59;;;4.63;88.78
71109;BME280;59614;51.012;-1.648;2024-02-26T06:43:09;99547.44;;;4.73;88.74
71109;BME280;59614;51.012;-1.648;2024-02-26T06:45:35;99542.25;;;4.70;87.45
71109;BME280;59614;51.012;-1.648;2024-02-26T06:48:00;99549.25;;;4.67;87.68
71109;BME280;59614;51.012;-1.648;2024-02-26T06:50:26;99573.63;;;4.67;87.74
71109;BME280;59614;51.012;-1.648;2024-02-26T06:52:51;99562.28;;;4.70;87.66
71109;BME280;59614;51.012;-1.648;2024-02-26T06:55:16;99579.75;;;4.61;87.23
71109;BME280;59614;51.012;-1.648;2024-02-26T06:57:42;99575.34;;;4.71;87.03
71109;BME280;59614;51.012;-1.648;2024-02-26T07:00:08;99585.75;;;4.74;87.34
71109;BME280;59614;51.012;-1.648;2024-02-26T07:02:33;99589.34;;;4.61;87.40
71109;BME280;59614;51.012;-1.648;2024-02-26T07:04:59;99586.66;;;4.69;87.03
71109;BME280;59614;51.012;-1.648;2024-02-26T07:07:25;99599.69;;;4.79;86.37
71109;BME280;59614;51.012;-1.648;2024-02-26T07:09:50;99610.19;;;4.69;86.41
71109;BME280;59614;51.012;-1.648;2024-02-26T07:12:15;99613.69;;;4.72;85.81
71109;BME280;59614;51.012;-1.648;2024-02-26T07:14:41;99621.47;;;4.82;86.10
71109;BME280;59614;51.012;-1.648;2024-02-26T07:17:07;99676.47;;;4.60;86.16
71109;BME280;59614;51.012;-1.648;2024-02-26T07:19:33;99639.84;;;4.69;85.18
71109;BME280;59614;51.012;-1.648;2024-02-26T07:21:58;99654.66;;;4.67;85.02
71109;BME280;59614;51.012;-1.648;2024-02-26T07:24:26;99644.19;;;4.70;85.94
71109;BME280;59614;51.012;-1.648;2024-02-26T07:26:51;99651.16;;;4.68;85.87
71109;BME280;59614;51.012;-1.648;2024-02-26T07:29:16;99672.91;;;4.72;85.75
71109;BME280;59614;51.012;-1.648;2024-02-26T07:31:42;99665.88;;;4.85;86.38
71109;BME280;59614;51.012;-1.648;2024-02-26T07:34:07;99686.84;;;4.78;86.36
71109;BME280;59614;51.012;-1.648;2024-02-26T07:36:33;99678.13;;;4.79;87.10
71109;BME280;59614;51.012;-1.648;2024-02-26T07:38:58;99707.72;;;4.88;87.14
71109;BME280;59614;51.012;-1.648;2024-02-26T07:41:24;99682.44;;;4.85;85.58
71109;BME280;59614;51.012;-1.648;2024-02-26T07:43:49;99699.84;;;4.94;86.11
71109;BME280;59614;51.012;-1.648;2024-02-26T07:46:14;99699.88;;;4.86;86.75
71109;BME280;59614;51.012;-1.648;2024-02-26T07:48:40;99712.88;;;5.00;86.97
71109;BME280;59614;51.012;-1.648;2024-02-26T07:51:06;99725.97;;;4.97;87.40
71109;BME280;59614;51.012;-1.648;2024-02-26T07:53:31;99755.63;;;4.98;87.19
71109;BME280;59614;51.012;-1.648;2024-02-26T07:55:57;99727.69;;;5.04;87.53
71109;BME280;59614;51.012;-1.648;2024-02-26T07:58:23;99729.44;;;4.96;86.63
71109;BME280;59614;51.012;-1.648;2024-02-26T08:00:49;99736.28;;;5.25;87.22
71109;BME280;59614;51.012;-1.648;2024-02-26T08:03:14;99754.72;;;5.06;86.72
71109;BME280;59614;51.012;-1.648;2024-02-26T08:05:41;99779.88;;;5.29;86.29
71109;BME280;59614;51.012;-1.648;2024-02-26T08:08:08;99771.22;;;5.13;86.71
71109;BME280;59614;51.012;-1.648;2024-02-26T08:10:33;99755.53;;;5.18;86.61
71109;BME280;59614;51.012;-1.648;2024-02-26T08:12:58;99769.44;;;5.20;87.39
71109;BME280;59614;51.012;-1.648;2024-02-26T08:15:30;99754.66;;;5.16;86.78
71109;BME280;59614;51.012;-1.648;2024-02-26T08:17:56;99772.03;;;5.29;88.15
71109;BME280;59614;51.012;-1.648;2024-02-26T08:20:21;99772.03;;;5.26;87.87
71109;BME280;59614;51.012;-1.648;2024-02-26T08:22:46;99777.19;;;5.41;87.56
71109;BME280;59614;51.012;-1.648;2024-02-26T08:25:12;99784.22;;;5.33;88.60
71109;BME280;59614;51.012;-1.648;2024-02-26T08:27:37;99778.06;;;5.40;88.68
71109;BME280;59614;51.012;-1.648;2024-02-26T08:30:03;99784.22;;;5.30;89.03
71109;BME280;59614;51.012;-1.648;2024-02-26T08:32:28;99809.56;;;5.25;89.56
71109;BME280;59614;51.012;-1.648;2024-02-26T08:34:53;99805.19;;;5.25;90.74
71109;BME280;59614;51.012;-1.648;2024-02-26T08:37:19;99813.06;;;5.22;91.88
71109;BME280;59614;51.012;-1.648;2024-02-26T08:39:45;99833.09;;;5.19;93.30
71109;BME280;59614;51.012;-1.648;2024-02-26T08:42:11;99843.66;;;4.97;95.90
71109;BME280;59614;51.012;-1.648;2024-02-26T08:44:36;99819.16;;;5.15;96.33
71109;BME280;59614;51.012;-1.648;2024-02-26T08:47:01;99847.97;;;5.14;95.74
71109;BME280;59614;51.012;-1.648;2024-02-26T08:49:27;99839.13;;;5.38;95.16
71109;BME280;59614;51.012;-1.648;2024-02-26T08:51:53;99852.31;;;5.08;94.22
71109;BME280;59614;51.012;-1.648;2024-02-26T08:54:18;99833.91;;;5.41;94.19
71109;BME280;59614;51.012;-1.648;2024-02-26T08:56:43;99847.88;;;5.38;93.86
71109;BME280;59614;51.012;-1.648;2024-02-26T08:59:09;99853.19;;;5.17;93.96
71109;BME280;59614;51.012;-1.648;2024-02-26T09:01:34;99885.44;;;5.22;93.51
71109;BME280;59614;51.012;-1.648;2024-02-26T09:03:59;99865.25;;;5.50;93.46
71109;BME280;59614;51.012;-1.648;2024-02-26T09:06:25;99879.31;;;5.24;93.13
71109;BME280;59614;51.012;-1.648;2024-02-26T09:08:50;99856.63;;;5.33;92.07
71109;BME280;59614;51.012;-1.648;2024-02-26T09:11:16;99882.72;;;5.44;92.54
71109;BME280;59614;51.012;-1.648;2024-02-26T09:13:41;99860.88;;;5.57;92.25
71109;BME280;59614;51.012;-1.648;2024-02-26T09:16:07;99883.56;;;5.53;91.05
71109;BME280;59614;51.012;-1.648;2024-02-26T09:18:33;99894.06;;;5.43;90.86
71109;BME280;59614;51.012;-1.648;2024-02-26T09:20:58;99889.53;;;5.82;90.17
71109;BME280;59614;51.012;-1.648;2024-02-26T09:23:23;99921.88;;;5.71;89.53
71109;BME280;59614;51.012;-1.648;2024-02-26T09:25:49;99922.69;;;5.81;88.75
71109;BME280;59614;51.012;-1.648;2024-02-26T09:28:14;99921.09;;;5.51;88.85
71109;BME280;59614;51.012;-1.648;2024-02-26T09:30:42;99950.72;;;5.67;88.25
71109;BME280;59614;51.012;-1.648;2024-02-26T09:33:07;99968.09;;;5.80;87.43
71109;BME280;59614;51.012;-1.648;2024-02-26T09:35:33;99944.47;;;5.91;86.40
71109;BME280;59614;51.012;-1.648;2024-02-26T09:37:59;99941.66;;;6.31;84.56
71109;BME280;59614;51.012;-1.648;2024-02-26T09:40:24;99973.25;;;6.11;85.18
71109;BME280;59614;51.012;-1.648;2024-02-26T09:42:52;99947.16;;;5.85;86.11
71109;BME280;59614;51.012;-1.648;2024-02-26T09:45:21;99966.41;;;5.65;86.11
71109;BME280;59614;51.012;-1.648;2024-02-26T09:47:47;99968.19;;;5.62;86.33
71109;BME280;59614;51.012;-1.648;2024-02-26T09:50:13;99946.28;;;5.83;86.39
71109;BME280;59614;51.012;-1.648;2024-02-26T09:52:41;99966.44;;;5.56;86.02
71109;BME280;59614;51.012;-1.648;2024-02-26T09:55:08;99969.91;;;5.74;85.01
71109;BME280;59614;51.012;-1.648;2024-02-26T09:57:36;99973.38;;;5.71;84.54
71109;BME280;59614;51.012;-1.648;2024-02-26T10:00:03;99978.56;;;5.86;84.63
71109;BME280;59614;51.012;-1.648;2024-02-26T10:02:30;99989.13;;;5.68;85.29
71109;BME280;59614;51.012;-1.648;2024-02-26T10:04:56;99989.97;;;5.68;84.33
71109;BME280;59614;51.012;-1.648;2024-02-26T10:07:26;99984.69;;;5.75;84.18
71109;BME280;59614;51.012;-1.648;2024-02-26T10:09:55;99978.38;;;6.27;82.92
71109;BME280;59614;51.012;-1.648;2024-02-26T10:12:21;99992.28;;;6.41;81.54
71109;BME280;59614;51.012;-1.648;2024-02-26T10:14:46;99986.19;;;6.31;81.88
71109;BME280;59614;51.012;-1.648;2024-02-26T10:17:12;99983.41;;;6.59;81.00
71109;BME280;59614;51.012;-1.648;2024-02-26T10:19:37;100011.66;;;6.14;80.21
71109;BME280;59614;51.012;-1.648;2024-02-26T10:22:03;99995.00;;;6.21;81.14
71109;BME280;59614;51.012;-1.648;2024-02-26T10:24:30;99989.72;;;6.30;81.12
71109;BME280;59614;51.012;-1.648;2024-02-26T10:26:56;100006.31;;;6.34;80.53
71109;BME280;59614;51.012;-1.648;2024-02-26T10:29:23;100020.28;;;6.34;80.89
71109;BME280;59614;51.012;-1.648;2024-02-26T10:31:50;100019.38;;;6.36;81.48
71109;BME280;59614;51.012;-1.648;2024-02-26T10:34:16;100023.00;;;6.16;81.28
71109;BME280;59614;51.012;-1.648;2024-02-26T10:36:41;100030.91;;;6.07;82.13
71109;BME280;59614;51.012;-1.648;2024-02-26T10:39:07;100020.38;;;6.16;82.97
71109;BME280;59614;51.012;-1.648;2024-02-26T10:41:33;100043.09;;;6.14;82.91
71109;BME280;59614;51.012;-1.648;2024-02-26T10:43:59;100050.09;;;6.09;82.71
71109;BME280;59614;51.012;-1.648;2024-02-26T10:46:25;100062.28;;;6.17;82.87
71109;BME280;59614;51.012;-1.648;2024-02-26T10:48:51;100049.19;;;6.19;82.30
71109;BME280;59614;51.012;-1.648;2024-02-26T10:51:24;100062.09;;;6.59;82.75
71109;BME280;59614;51.012;-1.648;2024-02-26T10:53:51;100072.63;;;6.50;82.25
71109;BME280;59614;51.012;-1.648;2024-02-26T10:56:24;100078.91;;;6.18;81.46
71109;BME280;59614;51.012;-1.648;2024-02-26T10:58:52;100088.25;;;6.67;80.65
71109;BME280;59614;51.012;-1.648;2024-02-26T11:01:18;100083.22;;;6.25;80.85
71109;BME280;59614;51.012;-1.648;2024-02-26T11:03:45;100090.16;;;6.36;80.48
71109;BME280;59614;51.012;-1.648;2024-02-26T11:06:12;100086.56;;;6.58;80.14
71109;BME280;59614;51.012;-1.648;2024-02-26T11:08:38;100105.63;;;6.90;77.72
71109;BME280;59614;51.012;-1.648;2024-02-26T11:11:04;100111.91;;;6.59;77.69
71109;BME280;59614;51.012;-1.648;2024-02-26T11:13:30;100106.47;;;6.90;78.52
71109;BME280;59614;51.012;-1.648;2024-02-26T11:15:56;100118.63;;;7.07;77.86
71109;BME280;59614;51.012;-1.648;2024-02-26T11:18:26;100131.00;;;6.86;78.91
71109;BME280;59614;51.012;-1.648;2024-02-26T11:20:54;100126.72;;;6.65;78.39
71109;BME280;59614;51.012;-1.648;2024-02-26T11:23:22;100139.81;;;6.70;78.61
71109;BME280;59614;51.012;-1.648;2024-02-26T11:25:51;100173.09;;;6.58;77.99
71109;BME280;59614;51.012;-1.648;2024-02-26T11:28:19;100150.41;;;6.51;77.38
71109;BME280;59614;51.012;-1.648;2024-02-26T11:30:48;100153.81;;;6.72;76.91
71109;BME280;59614;51.012;-1.648;2024-02-26T11:33:15;100141.34;;;7.06;74.91
71109;BME280;59614;51.012;-1.648;2024-02-26T11:35:41;100145.75;;;7.06;75.60
71109;BME280;59614;51.012;-1.648;2024-02-26T11:38:07;100171.16;;;6.99;73.71
71109;BME280;59614;51.012;-1.648;2024-02-26T11:40:37;100179.13;;;6.77;73.21
71109;BME280;59614;51.012;-1.648;2024-02-26T11:43:04;100162.94;;;7.44;73.43
71109;BME280;59614;51.012;-1.648;2024-02-26T11:48:04;100177.69;;;7.64;70.80
71109;BME280;59614;51.012;-1.648;2024-02-26T11:50:34;100169.78;;;7.68;68.89
71109;BME280;59614;51.012;-1.648;2024-02-26T11:53:26;100157.84;;;7.29;69.01
71109;BME280;59614;51.012;-1.648;2024-02-26T11:58:43;100175.63;;;7.95;67.42
71109;BME280;59614;51.012;-1.648;2024-02-26T12:01:46;100173.19;;;8.64;67.01
71109;BME280;59614;51.012;-1.648;2024-02-26T12:06:55;100181.50;;;8.25;68.29
71109;BME280;59614;51.012;-1.648;2024-02-26T12:09:37;100187.63;;;8.23;69.22
71109;BME280;59614;51.012;-1.648;2024-02-26T12:12:05;100201.16;;;7.84;69.36
71109;BME280;59614;51.012;-1.648;2024-02-26T12:14:37;100197.81;;;7.66;70.08
71109;BME280;59614;51.012;-1.648;2024-02-26T12:17:03;100197.63;;;7.85;70.71
71109;BME280;59614;51.012;-1.648;2024-02-26T12:19:32;100187.72;;;8.16;68.85
71109;BME280;59614;51.012;-1.648;2024-02-26T12:21:58;100201.94;;;7.97;67.87
71109;BME280;59614;51.012;-1.648;2024-02-26T12:24:24;100197.38;;;8.14;68.75
71109;BME280;59614;51.012;-1.648;2024-02-26T12:26:49;100199.03;;;8.23;68.47
71109;BME280;59614;51.012;-1.648;2024-02-26T12:29:15;100191.56;;;7.78;70.42
71109;BME280;59614;51.012;-1.648;2024-02-26T12:31:40;100218.53;;;8.00;68.86
71109;BME280;59614;51.012;-1.648;2024-02-26T12:34:07;100199.75;;;8.36;70.59
71109;BME280;59614;51.012;-1.648;2024-02-26T12:36:34;100219.34;;;8.10;68.17
71109;BME280;59614;51.012;-1.648;2024-02-26T12:39:02;100229.28;;;7.74;67.50
71109;BME280;59614;51.012;-1.648;2024-02-26T12:41:27;100233.25;;;8.18;66.89
71109;BME280;59614;51.012;-1.648;2024-02-26T12:43:54;100233.97;;;8.38;65.19
71109;BME280;59614;51.012;-1.648;2024-02-26T12:46:20;100232.69;;;7.84;64.40
71109;BME280;59614;51.012;-1.648;2024-02-26T12:48:46;100232.41;;;8.16;64.88
71109;BME280;59614;51.012;-1.648;2024-02-26T12:51:12;100246.88;;;7.60;65.32
71109;BME280;59614;51.012;-1.648;2024-02-26T12:53:39;100261.50;;;7.95;64.67
71109;BME280;59614;51.012;-1.648;2024-02-26T12:56:07;100253.88;;;7.64;65.25
71109;BME280;59614;51.012;-1.648;2024-02-26T12:58:34;100256.03;;;8.19;64.37